sensor_id;sensor_type;location;lat;lon;timestamp;pressure;altitude;pressure_sealevel;temperature;humidity
17785;BME280;9016;53.582;10.062;2023-11-22T00:01:06;102770.28;;;5.55;81.49
17785;BME280;9016;53.582;10.062;2023-11-22T00:03:34;102770.34;;;5.47;81.53
17785;BME280;9016;53.582;10.062;2023-11-22T00:06:02;102778.28;;;5.43;81.83
17785;BME280;9016;53.582;10.062;2023-11-22T00:08:30;102782.78;;;5.29;82.85
17785;BME280;9016;53.582;10.062;2023-11-22T00:10:58;102792.41;;;5.37;82.63
17785;BME280;9016;53.582;10.062;2023-11-22T00:13:26;102782.78;;;5.29;82.37
17785;BME280;9016;53.582;10.062;2023-11-22T00:15:54;102784.63;;;5.16;83.46
17785;BME280;9016;53.582;10.062;2023-11-22T00:18:24;102775.75;;;5.26;83.53
17785;BME280;9016;53.582;10.062;2023-11-22T00:20:53;102776.53;;;5.39;82.83
17785;BME280;9016;53.582;10.062;2023-11-22T00:23:24;102769.50;;;5.39;82.63
17785;BME280;9016;53.582;10.062;2023-11-22T00:25:55;102772.97;;;5.44;81.83
17785;BME280;9016;53.582;10.062;2023-11-22T00:28:24;102771.19;;;5.46;82.17
17785;BME280;9016;53.582;10.062;2023-11-22T00:30:53;102766.84;;;5.41;81.84
17785;BME280;9016;53.582;10.062;2023-11-22T00:33:21;102763.28;;;5.45;81.98
17785;BME280;9016;53.582;10.062;2023-11-22T00:35:51;102760.69;;;5.40;82.66
17785;BME280;9016;53.582;10.062;2023-11-22T00:38:20;102765.94;;;5.45;82.34
17785;BME280;9016;53.582;10.062;2023-11-22T00:40:48;102776.53;;;5.42;82.14
17785;BME280;9016;53.582;10.062;2023-11-22T00:43:16;102779.19;;;5.42;82.68
17785;BME280;9016;53.582;10.062;2023-11-22T00:45:45;102794.22;;;5.37;82.44
17785;BME280;9016;53.582;10.062;2023-11-22T00:48:13;102799.47;;;5.38;82.55
17785;BME280;9016;53.582;10.062;2023-11-22T00:50:41;102813.56;;;5.37;82.07
17785;BME280;9016;53.582;10.062;2023-11-22T00:53:11;102814.47;;;5.35;83.05
17785;BME280;9016;53.582;10.062;2023-11-22T00:55:41;102820.66;;;5.31;83.06
17785;BME280;9016;53.582;10.062;2023-11-22T00:58:09;102821.47;;;5.39;82.73
17785;BME280;9016;53.582;10.062;2023-11-22T01:00:38;102837.34;;;5.42;82.32
17785;BME280;9016;53.582;10.062;2023-11-22T01:03:06;102845.31;;;5.36;82.55
17785;BME280;9016;53.582;10.062;2023-11-22T01:05:39;102848.00;;;5.31;82.63
17785;BME280;9016;53.582;10.062;2023-11-22T01:08:07;102853.22;;;5.36;82.09
17785;BME280;9016;53.582;10.062;2023-11-22T01:10:36;102851.47;;;5.32;82.42
17785;BME280;9016;53.582;10.062;2023-11-22T01:13:04;102848.84;;;5.30;82.26
17785;BME280;9016;53.582;10.062;2023-11-22T01:15:32;102842.72;;;5.25;82.18
17785;BME280;9016;53.582;10.062;2023-11-22T01:18:00;102837.44;;;5.24;82.97
17785;BME280;9016;53.582;10.062;2023-11-22T01:20:28;102838.31;;;5.23;82.79
17785;BME280;9016;53.582;10.062;2023-11-22T01:22:56;102837.44;;;5.21;82.25
17785;BME280;9016;53.582;10.062;2023-11-22T01:25:24;102825.16;;;5.14;82.70
17785;BME280;9016;53.582;10.062;2023-11-22T01:27:54;102828.72;;;5.07;82.42
17785;BME280;9016;53.582;10.062;2023-11-22T01:30:22;102834.84;;;5.12;83.32
17785;BME280;9016;53.582;10.062;2023-11-22T01:32:50;102833.09;;;5.09;82.52
17785;BME280;9016;53.582;10.062;2023-11-22T01:35:18;102837.53;;;5.01;82.74
17785;BME280;9016;53.582;10.062;2023-11-22T01:37:46;102840.16;;;5.02;82.73
17785;BME280;9016;53.582;10.062;2023-11-22T01:40:16;102839.28;;;5.02;83.02
17785;BME280;9016;53.582;10.062;2023-11-22T01:42:46;102836.66;;;5.00;82.31
17785;BME280;9016;53.582;10.062;2023-11-22T01:45:15;102840.19;;;4.96;82.48
17785;BME280;9016;53.582;10.062;2023-11-22T01:47:44;102842.81;;;4.96;82.26
17785;BME280;9016;53.582;10.062;2023-11-22T01:50:13;102847.25;;;4.96;82.38
17785;BME280;9016;53.582;10.062;2023-11-22T01:52:44;102852.56;;;4.90;82.16
17785;BME280;9016;53.582;10.062;2023-11-22T01:55:13;102847.25;;;4.87;82.53
17785;BME280;9016;53.582;10.062;2023-11-22T01:57:42;102851.69;;;4.86;82.38
17785;BME280;9016;53.582;10.062;2023-11-22T02:00:11;102841.13;;;4.82;82.52
17785;BME280;9016;53.582;10.062;2023-11-22T02:02:43;102840.25;;;4.78;82.94
17785;BME280;9016;53.582;10.062;2023-11-22T02:05:11;102832.34;;;4.75;83.03
17785;BME280;9016;53.582;10.062;2023-11-22T02:07:40;102841.16;;;4.71;82.46
17785;BME280;9016;53.582;10.062;2023-11-22T02:10:09;102835.88;;;4.74;83.05
17785;BME280;9016;53.582;10.062;2023-11-22T02:12:37;102837.63;;;4.75;82.48
17785;BME280;9016;53.582;10.062;2023-11-22T02:15:06;102836.72;;;4.78;82.56
17785;BME280;9016;53.582;10.062;2023-11-22T02:17:34;102827.94;;;4.74;82.41
17785;BME280;9016;53.582;10.062;2023-11-22T02:20:05;102837.66;;;4.69;82.63
17785;BME280;9016;53.582;10.062;2023-11-22T02:22:43;102835.91;;;4.68;82.80
17785;BME280;9016;53.582;10.062;2023-11-22T02:25:12;102855.25;;;4.67;82.78
17785;BME280;9016;53.582;10.062;2023-11-22T02:27:41;102850.00;;;4.64;83.15
17785;BME280;9016;53.582;10.062;2023-11-22T02:30:41;102864.91;;;4.74;82.17
17785;BME280;9016;53.582;10.062;2023-11-22T02:33:09;102887.81;;;4.74;82.39
17785;BME280;9016;53.582;10.062;2023-11-22T02:35:37;102881.66;;;4.72;82.94
17785;BME280;9016;53.582;10.062;2023-11-22T02:38:05;102891.34;;;4.68;82.33
17785;BME280;9016;53.582;10.062;2023-11-22T02:40:35;102889.56;;;4.69;82.34
17785;BME280;9016;53.582;10.062;2023-11-22T02:43:03;102891.34;;;4.68;83.05
17785;BME280;9016;53.582;10.062;2023-11-22T02:45:35;102893.13;;;4.66;83.00
17785;BME280;9016;53.582;10.062;2023-11-22T02:48:04;102893.09;;;4.69;82.92
17785;BME280;9016;53.582;10.062;2023-11-22T02:50:36;102890.47;;;4.63;83.14
17785;BME280;9016;53.582;10.062;2023-11-22T02:53:05;102897.50;;;4.61;83.25
17785;BME280;9016;53.582;10.062;2023-11-22T02:55:35;102897.50;;;4.69;82.50
17785;BME280;9016;53.582;10.062;2023-11-22T02:58:03;102902.78;;;4.58;82.29
17785;BME280;9016;53.582;10.062;2023-11-22T03:00:32;102904.56;;;4.55;83.46
17785;BME280;9016;53.582;10.062;2023-11-22T03:03:01;102908.09;;;4.57;82.86
17785;BME280;9016;53.582;10.062;2023-11-22T03:05:31;102906.31;;;4.59;83.24
17785;BME280;9016;53.582;10.062;2023-11-22T03:08:00;102908.06;;;4.54;82.63
17785;BME280;9016;53.582;10.062;2023-11-22T03:10:28;102916.00;;;4.54;82.57
17785;BME280;9016;53.582;10.062;2023-11-22T03:12:58;102925.69;;;4.46;82.40
17785;BME280;9016;53.582;10.062;2023-11-22T03:15:25;102901.03;;;4.47;82.95
17785;BME280;9016;53.582;10.062;2023-11-22T03:17:54;102916.00;;;4.48;82.36
17785;BME280;9016;53.582;10.062;2023-11-22T03:20:22;102910.72;;;4.36;82.13
17785;BME280;9016;53.582;10.062;2023-11-22T03:22:50;102913.34;;;4.28;82.93
17785;BME280;9016;53.582;10.062;2023-11-22T03:25:18;102923.94;;;4.24;83.27
17785;BME280;9016;53.582;10.062;2023-11-22T03:27:46;102916.91;;;4.33;84.34
17785;BME280;9016;53.582;10.062;2023-11-22T03:30:15;102915.13;;;4.28;83.71
17785;BME280;9016;53.582;10.062;2023-11-22T03:32:43;102917.78;;;4.38;83.94
17785;BME280;9016;53.582;10.062;2023-11-22T03:35:12;102923.06;;;4.35;83.60
17785;BME280;9016;53.582;10.062;2023-11-22T03:37:39;102930.97;;;4.37;83.36
17785;BME280;9016;53.582;10.062;2023-11-22T03:40:08;102926.56;;;4.37;83.24
17785;BME280;9016;53.582;10.062;2023-11-22T03:42:38;102931.84;;;4.24;83.50
17785;BME280;9016;53.582;10.062;2023-11-22T03:45:07;102940.63;;;4.20;83.09
17785;BME280;9016;53.582;10.062;2023-11-22T03:47:36;102938.84;;;4.08;83.97
17785;BME280;9016;53.582;10.062;2023-11-22T03:50:06;102935.34;;;4.12;84.00
17785;BME280;9016;53.582;10.062;2023-11-22T03:52:34;102942.41;;;4.13;84.14
17785;BME280;9016;53.582;10.062;2023-11-22T03:55:03;102944.16;;;4.23;83.55
17785;BME280;9016;53.582;10.062;2023-11-22T03:57:31;102936.22;;;4.25;83.54
17785;BME280;9016;53.582;10.062;2023-11-22T03:59:59;102949.41;;;4.26;82.56
17785;BME280;9016;53.582;10.062;2023-11-22T04:02:27;102955.59;;;4.22;83.01
17785;BME280;9016;53.582;10.062;2023-11-22T04:04:57;102946.78;;;4.23;83.23
17785;BME280;9016;53.582;10.062;2023-11-22T04:07:25;102954.69;;;4.17;83.11
17785;BME280;9016;53.582;10.062;2023-11-22T04:09:53;102954.69;;;4.17;83.66
17785;BME280;9016;53.582;10.062;2023-11-22T04:12:22;102965.25;;;4.17;83.33
17785;BME280;9016;53.582;10.062;2023-11-22T04:14:51;102955.59;;;4.18;82.81
17785;BME280;9016;53.582;10.062;2023-11-22T04:17:20;102959.09;;;4.23;82.98
17785;BME280;9016;53.582;10.062;2023-11-22T04:19:48;102955.56;;;4.21;81.89
17785;BME280;9016;53.582;10.062;2023-11-22T04:22:18;102947.69;;;4.24;82.23
17785;BME280;9016;53.582;10.062;2023-11-22T04:24:46;102940.63;;;4.29;82.04
17785;BME280;9016;53.582;10.062;2023-11-22T04:27:14;102940.66;;;4.33;82.22
17785;BME280;9016;53.582;10.062;2023-11-22T04:29:42;102944.19;;;4.35;81.93
17785;BME280;9016;53.582;10.062;2023-11-22T04:32:10;102940.63;;;4.27;82.15
17785;BME280;9016;53.582;10.062;2023-11-22T04:34:38;102939.75;;;4.27;82.33
17785;BME280;9016;53.582;10.062;2023-11-22T04:37:06;102926.56;;;4.33;82.48
17785;BME280;9016;53.582;10.062;2023-11-22T04:39:36;102936.25;;;4.28;81.85
17785;BME280;9016;53.582;10.062;2023-11-22T04:42:05;102949.44;;;4.28;82.44
17785;BME280;9016;53.582;10.062;2023-11-22T04:44:33;102938.88;;;4.26;82.14
17785;BME280;9016;53.582;10.062;2023-11-22T04:47:01;102940.59;;;4.06;82.33
17785;BME280;9016;53.582;10.062;2023-11-22T04:49:29;102941.50;;;4.13;82.84
17785;BME280;9016;53.582;10.062;2023-11-22T04:51:58;102945.03;;;4.07;83.59
17785;BME280;9016;53.582;10.062;2023-11-22T04:54:28;102952.94;;;4.07;82.69
17785;BME280;9016;53.582;10.062;2023-11-22T04:56:57;102935.34;;;4.00;82.57
17785;BME280;9016;53.582;10.062;2023-11-22T04:59:25;102943.22;;;3.95;83.14
17785;BME280;9016;53.582;10.062;2023-11-22T05:01:53;102945.00;;;4.04;83.27
17785;BME280;9016;53.582;10.062;2023-11-22T05:04:21;102949.41;;;4.14;83.19
17785;BME280;9016;53.582;10.062;2023-11-22T05:06:49;102945.00;;;4.09;82.95
17785;BME280;9016;53.582;10.062;2023-11-22T05:09:17;102944.16;;;4.02;82.62
17785;BME280;9016;53.582;10.062;2023-11-22T05:11:46;102945.03;;;4.07;82.19
17785;BME280;9016;53.582;10.062;2023-11-22T05:14:15;102950.31;;;4.15;83.13
17785;BME280;9016;53.582;10.062;2023-11-22T05:16:43;102948.53;;;4.09;82.09
17785;BME280;9016;53.582;10.062;2023-11-22T05:19:12;102953.81;;;4.20;82.34
17785;BME280;9016;53.582;10.062;2023-11-22T05:21:40;102958.25;;;4.22;82.11
17785;BME280;9016;53.582;10.062;2023-11-22T05:24:08;102958.22;;;4.21;81.89
17785;BME280;9016;53.582;10.062;2023-11-22T05:26:36;102962.63;;;4.19;81.84
17785;BME280;9016;53.582;10.062;2023-11-22T05:29:05;102964.34;;;4.14;82.20
17785;BME280;9016;53.582;10.062;2023-11-22T05:31:34;102969.66;;;4.18;82.47
17785;BME280;9016;53.582;10.062;2023-11-22T05:34:04;102985.47;;;4.14;81.66
17785;BME280;9016;53.582;10.062;2023-11-22T05:36:32;102996.03;;;4.15;82.74
17785;BME280;9016;53.582;10.062;2023-11-22T05:39:00;102997.81;;;4.16;82.27
17785;BME280;9016;53.582;10.062;2023-11-22T05:41:30;102996.91;;;4.11;82.52
17785;BME280;9016;53.582;10.062;2023-11-22T05:43:58;102994.28;;;4.16;81.98
17785;BME280;9016;53.582;10.062;2023-11-22T05:46:26;102994.28;;;4.17;82.11
17785;BME280;9016;53.582;10.062;2023-11-22T05:48:56;102986.34;;;4.10;81.32
17785;BME280;9016;53.582;10.062;2023-11-22T05:51:24;102984.59;;;4.09;82.78
17785;BME280;9016;53.582;10.062;2023-11-22T05:53:52;102982.84;;;4.08;82.75
17785;BME280;9016;53.582;10.062;2023-11-22T05:56:20;102982.84;;;4.12;81.98
17785;BME280;9016;53.582;10.062;2023-11-22T05:58:48;102978.44;;;4.11;82.57
17785;BME280;9016;53.582;10.062;2023-11-22T06:01:16;102976.66;;;4.02;81.96
17785;BME280;9016;53.582;10.062;2023-11-22T06:03:44;102975.81;;;4.11;82.21
17785;BME280;9016;53.582;10.062;2023-11-22T06:06:13;102978.44;;;4.16;82.80
17785;BME280;9016;53.582;10.062;2023-11-22T06:08:41;102982.00;;;4.22;82.91
17785;BME280;9016;53.582;10.062;2023-11-22T06:11:09;102986.34;;;4.08;82.31
17785;BME280;9016;53.582;10.062;2023-11-22T06:13:40;102967.00;;;4.12;82.67
17785;BME280;9016;53.582;10.062;2023-11-22T06:16:09;102959.06;;;4.01;83.12
17785;BME280;9016;53.582;10.062;2023-11-22T06:18:37;102959.09;;;4.00;82.49
17785;BME280;9016;53.582;10.062;2023-11-22T06:21:07;102954.69;;;4.05;82.01
17785;BME280;9016;53.582;10.062;2023-11-22T06:23:36;102954.66;;;4.00;82.68
17785;BME280;9016;53.582;10.062;2023-11-22T06:26:04;102950.28;;;4.02;82.00
17785;BME280;9016;53.582;10.062;2023-11-22T06:28:33;102962.59;;;4.05;82.75
17785;BME280;9016;53.582;10.062;2023-11-22T06:31:01;102968.72;;;4.04;82.37
17785;BME280;9016;53.582;10.062;2023-11-22T06:33:29;102979.31;;;4.07;81.38
17785;BME280;9016;53.582;10.062;2023-11-22T06:35:57;102960.88;;;4.13;82.03
17785;BME280;9016;53.582;10.062;2023-11-22T06:38:25;102960.81;;;4.02;82.12
17785;BME280;9016;53.582;10.062;2023-11-22T06:40:55;102968.75;;;4.07;82.37
17785;BME280;9016;53.582;10.062;2023-11-22T06:43:23;102965.25;;;4.11;82.09
17785;BME280;9016;53.582;10.062;2023-11-22T06:45:51;102954.72;;;4.20;82.55
17785;BME280;9016;53.582;10.062;2023-11-22T06:48:19;102956.47;;;4.29;81.53
17785;BME280;9016;53.582;10.062;2023-11-22T06:50:47;102966.16;;;4.36;81.54
17785;BME280;9016;53.582;10.062;2023-11-22T06:53:15;102965.28;;;4.35;81.68
17785;BME280;9016;53.582;10.062;2023-11-22T06:55:46;102976.69;;;4.24;81.61
17785;BME280;9016;53.582;10.062;2023-11-22T06:58:15;102971.44;;;4.22;82.01
17785;BME280;9016;53.582;10.062;2023-11-22T07:00:44;102960.88;;;4.30;82.70
17785;BME280;9016;53.582;10.062;2023-11-22T07:03:12;102952.09;;;4.29;81.39
17785;BME280;9016;53.582;10.062;2023-11-22T07:05:41;102953.81;;;4.30;81.75
17785;BME280;9016;53.582;10.062;2023-11-22T07:08:09;102952.97;;;4.34;81.42
17785;BME280;9016;53.582;10.062;2023-11-22T07:10:39;102952.97;;;4.40;81.61
17785;BME280;9016;53.582;10.062;2023-11-22T07:13:07;102954.72;;;4.35;81.46
17785;BME280;9016;53.582;10.062;2023-11-22T07:15:36;102963.53;;;4.33;81.20
17785;BME280;9016;53.582;10.062;2023-11-22T07:18:04;102964.41;;;4.41;80.45
17785;BME280;9016;53.582;10.062;2023-11-22T07:20:34;102971.41;;;4.37;79.79
17785;BME280;9016;53.582;10.062;2023-11-22T07:23:02;102976.72;;;4.42;80.65
17785;BME280;9016;53.582;10.062;2023-11-22T07:25:30;102979.34;;;4.45;80.67
17785;BME280;9016;53.582;10.062;2023-11-22T07:27:59;102982.88;;;4.51;80.51
17785;BME280;9016;53.582;10.062;2023-11-22T07:30:27;102962.63;;;4.59;80.09
17785;BME280;9016;53.582;10.062;2023-11-22T07:32:59;102990.78;;;4.63;79.69
17785;BME280;9016;53.582;10.062;2023-11-22T07:35:27;102989.91;;;4.69;80.26
17785;BME280;9016;53.582;10.062;2023-11-22T07:37:55;102975.81;;;4.76;80.28
17785;BME280;9016;53.582;10.062;2023-11-22T07:40:24;102988.16;;;4.77;79.57
17785;BME280;9016;53.582;10.062;2023-11-22T07:42:52;102998.72;;;4.86;79.75
17785;BME280;9016;53.582;10.062;2023-11-22T07:45:21;103007.53;;;4.85;78.19
17785;BME280;9016;53.582;10.062;2023-11-22T07:47:49;103010.16;;;4.92;79.19
17785;BME280;9016;53.582;10.062;2023-11-22T07:50:21;103022.50;;;4.92;78.49
17785;BME280;9016;53.582;10.062;2023-11-22T07:52:51;103034.81;;;4.94;78.74
17785;BME280;9016;53.582;10.062;2023-11-22T07:55:19;103033.94;;;5.01;77.89
17785;BME280;9016;53.582;10.062;2023-11-22T07:57:48;103035.69;;;4.96;77.97
17785;BME280;9016;53.582;10.062;2023-11-22T08:00:18;103040.09;;;5.02;78.18
17785;BME280;9016;53.582;10.062;2023-11-22T08:02:46;103035.69;;;5.04;77.92
17785;BME280;9016;53.582;10.062;2023-11-22T08:05:15;103030.41;;;5.02;78.94
17785;BME280;9016;53.582;10.062;2023-11-22T08:07:44;103030.41;;;5.12;78.77
17785;BME280;9016;53.582;10.062;2023-11-22T08:10:15;103027.75;;;5.16;77.99
17785;BME280;9016;53.582;10.062;2023-11-22T08:12:46;103037.44;;;5.17;77.39
17785;BME280;9016;53.582;10.062;2023-11-22T08:15:16;103023.31;;;5.29;77.93
17785;BME280;9016;53.582;10.062;2023-11-22T08:17:46;103012.72;;;5.39;77.59
17785;BME280;9016;53.582;10.062;2023-11-22T08:20:15;103001.28;;;5.34;77.52
17785;BME280;9016;53.582;10.062;2023-11-22T08:22:46;103001.25;;;5.37;77.26
17785;BME280;9016;53.582;10.062;2023-11-22T08:25:16;103014.47;;;5.48;77.42
17785;BME280;9016;53.582;10.062;2023-11-22T08:27:45;103005.63;;;5.52;76.82
17785;BME280;9016;53.582;10.062;2023-11-22T08:30:13;102994.19;;;5.51;76.94
17785;BME280;9016;53.582;10.062;2023-11-22T08:32:43;102981.84;;;5.55;76.49
17785;BME280;9016;53.582;10.062;2023-11-22T08:35:15;102982.69;;;5.58;76.90
17785;BME280;9016;53.582;10.062;2023-11-22T08:37:43;102990.63;;;5.57;76.48
17785;BME280;9016;53.582;10.062;2023-11-22T08:40:13;103007.34;;;5.63;76.48
17785;BME280;9016;53.582;10.062;2023-11-22T08:42:41;103014.38;;;5.69;76.49
17785;BME280;9016;53.582;10.062;2023-11-22T08:45:10;103009.06;;;5.84;76.69
17785;BME280;9016;53.582;10.062;2023-11-22T08:47:39;103014.28;;;5.94;76.18
17785;BME280;9016;53.582;10.062;2023-11-22T08:50:08;103012.50;;;6.03;75.32
17785;BME280;9016;53.582;10.062;2023-11-22T08:52:37;103000.19;;;5.94;75.62
17785;BME280;9016;53.582;10.062;2023-11-22T08:55:06;102994.78;;;6.11;75.02
17785;BME280;9016;53.582;10.062;2023-11-22T08:57:37;102995.72;;;6.08;74.79
17785;BME280;9016;53.582;10.062;2023-11-22T09:00:08;103005.34;;;6.18;73.97
17785;BME280;9016;53.582;10.062;2023-11-22T09:02:38;103007.16;;;6.12;75.38
17785;BME280;9016;53.582;10.062;2023-11-22T09:05:07;103008.84;;;6.23;75.01
17785;BME280;9016;53.582;10.062;2023-11-22T09:07:36;103012.38;;;6.24;74.57
17785;BME280;9016;53.582;10.062;2023-11-22T09:10:06;103008.81;;;6.28;74.49
17785;BME280;9016;53.582;10.062;2023-11-22T09:12:40;102995.53;;;6.35;74.34
17785;BME280;9016;53.582;10.062;2023-11-22T09:15:09;103004.38;;;6.34;74.86
17785;BME280;9016;53.582;10.062;2023-11-22T09:17:41;102990.28;;;6.28;74.70
17785;BME280;9016;53.582;10.062;2023-11-22T09:20:11;102987.59;;;6.35;74.72
17785;BME280;9016;53.582;10.062;2023-11-22T09:22:42;102998.09;;;6.49;74.71
17785;BME280;9016;53.582;10.062;2023-11-22T09:25:15;102999.00;;;6.45;74.16
17785;BME280;9016;53.582;10.062;2023-11-22T09:27:48;103000.78;;;6.43;73.83
17785;BME280;9016;53.582;10.062;2023-11-22T09:30:20;103006.91;;;6.46;73.78
17785;BME280;9016;53.582;10.062;2023-11-22T09:33:02;103011.25;;;6.58;74.05
17785;BME280;9016;53.582;10.062;2023-11-22T09:35:31;103021.84;;;6.58;74.25
17785;BME280;9016;53.582;10.062;2023-11-22T09:38:00;103027.06;;;6.68;73.33
17785;BME280;9016;53.582;10.062;2023-11-22T09:40:29;103030.56;;;6.72;74.05
17785;BME280;9016;53.582;10.062;2023-11-22T09:42:59;103027.13;;;6.64;72.78
17785;BME280;9016;53.582;10.062;2023-11-22T09:45:29;103028.69;;;6.83;72.34
17785;BME280;9016;53.582;10.062;2023-11-22T09:47:58;103034.84;;;6.86;72.45
17785;BME280;9016;53.582;10.062;2023-11-22T09:50:35;103043.59;;;6.97;71.57
17785;BME280;9016;53.582;10.062;2023-11-22T09:53:11;103035.66;;;6.99;71.09
17785;BME280;9016;53.582;10.062;2023-11-22T09:55:41;103040.06;;;6.95;70.80
17785;BME280;9016;53.582;10.062;2023-11-22T09:58:12;103046.16;;;7.07;70.90
17785;BME280;9016;53.582;10.062;2023-11-22T10:00:40;103026.78;;;7.01;70.79
17785;BME280;9016;53.582;10.062;2023-11-22T10:03:09;103032.91;;;7.08;70.05
17785;BME280;9016;53.582;10.062;2023-11-22T10:05:41;103031.13;;;7.07;70.20
17785;BME280;9016;53.582;10.062;2023-11-22T10:08:09;103023.19;;;7.07;70.04
17785;BME280;9016;53.582;10.062;2023-11-22T10:10:38;103027.56;;;7.13;70.73
17785;BME280;9016;53.582;10.062;2023-11-22T10:13:07;103011.63;;;7.16;70.32
17785;BME280;9016;53.582;10.062;2023-11-22T10:15:38;103003.63;;;7.20;70.66
17785;BME280;9016;53.582;10.062;2023-11-22T10:18:05;103015.91;;;7.30;71.27
17785;BME280;9016;53.582;10.062;2023-11-22T10:20:38;103007.00;;;7.36;71.41
17785;BME280;9016;53.582;10.062;2023-11-22T10:23:08;102997.25;;;7.38;69.35
17785;BME280;9016;53.582;10.062;2023-11-22T10:25:38;102994.53;;;7.42;69.12
17785;BME280;9016;53.582;10.062;2023-11-22T10:28:10;102991.97;;;7.35;69.28
17785;BME280;9016;53.582;10.062;2023-11-22T10:30:39;102992.72;;;7.46;67.40
17785;BME280;9016;53.582;10.062;2023-11-22T10:33:09;102995.25;;;7.58;68.29
17785;BME280;9016;53.582;10.062;2023-11-22T10:35:42;102986.31;;;7.62;67.04
17785;BME280;9016;53.582;10.062;2023-11-22T10:38:10;102968.69;;;7.59;67.55
17785;BME280;9016;53.582;10.062;2023-11-22T10:40:38;102963.31;;;7.64;67.53
17785;BME280;9016;53.582;10.062;2023-11-22T10:43:09;102950.88;;;7.69;67.94
17785;BME280;9016;53.582;10.062;2023-11-22T10:45:40;102942.19;;;7.58;66.56
17785;BME280;9016;53.582;10.062;2023-11-22T10:48:14;102933.16;;;7.69;67.20
17785;BME280;9016;53.582;10.062;2023-11-22T10:50:43;102928.78;;;7.67;66.58
17785;BME280;9016;53.582;10.062;2023-11-22T10:53:15;102930.50;;;7.69;66.98
17785;BME280;9016;53.582;10.062;2023-11-22T10:55:45;102922.66;;;7.63;68.27
17785;BME280;9016;53.582;10.062;2023-11-22T10:58:14;102910.25;;;7.64;67.77
17785;BME280;9016;53.582;10.062;2023-11-22T11:00:46;102922.56;;;7.68;67.12
17785;BME280;9016;53.582;10.062;2023-11-22T11:03:18;102902.22;;;7.70;66.65
17785;BME280;9016;53.582;10.062;2023-11-22T11:05:50;102896.91;;;7.70;66.23
17785;BME280;9016;53.582;10.062;2023-11-22T11:08:21;102895.06;;;7.73;67.18
17785;BME280;9016;53.582;10.062;2023-11-22T11:10:54;102892.41;;;7.73;67.03
17785;BME280;9016;53.582;10.062;2023-11-22T11:13:23;102889.63;;;7.82;65.95
17785;BME280;9016;53.582;10.062;2023-11-22T11:15:53;102876.34;;;7.85;65.51
17785;BME280;9016;53.582;10.062;2023-11-22T11:18:23;102867.47;;;7.86;65.90
17785;BME280;9016;53.582;10.062;2023-11-22T11:20:52;102858.88;;;7.68;66.34
17785;BME280;9016;53.582;10.062;2023-11-22T11:23:21;102847.53;;;7.60;66.51
17785;BME280;9016;53.582;10.062;2023-11-22T11:25:54;102838.63;;;7.62;65.46
17785;BME280;9016;53.582;10.062;2023-11-22T11:28:22;102827.25;;;7.56;66.63
17785;BME280;9016;53.582;10.062;2023-11-22T11:30:54;102818.41;;;7.55;66.56
17785;BME280;9016;53.582;10.062;2023-11-22T11:33:27;102816.78;;;7.47;66.67
17785;BME280;9016;53.582;10.062;2023-11-22T11:35:56;102796.63;;;7.34;67.24
17785;BME280;9016;53.582;10.062;2023-11-22T11:38:30;102806.13;;;7.48;66.36
17785;BME280;9016;53.582;10.062;2023-11-22T11:41:06;102805.31;;;7.45;66.19
17785;BME280;9016;53.582;10.062;2023-11-22T11:43:39;102807.81;;;7.54;67.11
17785;BME280;9016;53.582;10.062;2023-11-22T11:46:09;102781.06;;;7.67;66.46
17785;BME280;9016;53.582;10.062;2023-11-22T11:48:38;102765.94;;;7.74;66.44
17785;BME280;9016;53.582;10.062;2023-11-22T11:51:09;102756.31;;;7.67;65.77
17785;BME280;9016;53.582;10.062;2023-11-22T11:53:38;102758.06;;;7.68;65.87
17785;BME280;9016;53.582;10.062;2023-11-22T11:56:07;102754.69;;;7.60;65.16
17785;BME280;9016;53.582;10.062;2023-11-22T11:58:36;102739.53;;;7.65;65.63
17785;BME280;9016;53.582;10.062;2023-11-22T12:01:04;102728.84;;;7.71;66.24
17785;BME280;9016;53.582;10.062;2023-11-22T12:03:35;102706.63;;;7.75;65.13
17785;BME280;9016;53.582;10.062;2023-11-22T12:06:05;102705.94;;;7.65;63.69
17785;BME280;9016;53.582;10.062;2023-11-22T12:08:34;102726.28;;;7.65;62.45
17785;BME280;9016;53.582;10.062;2023-11-22T12:11:04;102736.34;;;7.45;62.18
17785;BME280;9016;53.582;10.062;2023-11-22T12:13:37;102769.84;;;7.50;62.68
17785;BME280;9016;53.582;10.062;2023-11-22T12:16:06;102794.72;;;7.42;60.42
17785;BME280;9016;53.582;10.062;2023-11-22T12:18:43;102786.66;;;7.49;60.08
17785;BME280;9016;53.582;10.062;2023-11-22T12:21:16;102756.41;;;7.61;59.72
17785;BME280;9016;53.582;10.062;2023-11-22T12:23:46;102755.66;;;7.51;59.50
17785;BME280;9016;53.582;10.062;2023-11-22T12:26:19;102747.66;;;7.56;59.01
17785;BME280;9016;53.582;10.062;2023-11-22T12:28:53;102749.63;;;7.42;58.43
17785;BME280;9016;53.582;10.062;2023-11-22T12:31:31;102764.50;;;7.53;57.89
17785;BME280;9016;53.582;10.062;2023-11-22T12:34:04;102770.44;;;7.67;56.46
17785;BME280;9016;53.582;10.062;2023-11-22T12:36:34;102769.94;;;7.44;55.53
17785;BME280;9016;53.582;10.062;2023-11-22T12:39:07;102763.50;;;7.59;56.20
17785;BME280;9016;53.582;10.062;2023-11-22T12:41:44;102748.50;;;7.58;55.58
17785;BME280;9016;53.582;10.062;2023-11-22T12:44:24;102737.84;;;7.61;53.76
17785;BME280;9016;53.582;10.062;2023-11-22T12:46:53;102731.81;;;7.50;52.49
17785;BME280;9016;53.582;10.062;2023-11-22T12:49:26;102731.31;;;7.25;51.88
17785;BME280;9016;53.582;10.062;2023-11-22T12:51:56;102726.72;;;7.38;53.56
17785;BME280;9016;53.582;10.062;2023-11-22T12:54:24;102736.38;;;7.43;52.51
17785;BME280;9016;53.582;10.062;2023-11-22T12:56:53;102736.22;;;7.51;52.76
17785;BME280;9016;53.582;10.062;2023-11-22T12:59:26;102736.22;;;7.51;52.79
17785;BME280;9016;53.582;10.062;2023-11-22T13:01:57;102739.00;;;7.42;53.16
17785;BME280;9016;53.582;10.062;2023-11-22T13:04:29;102737.22;;;7.44;52.24
17785;BME280;9016;53.582;10.062;2023-11-22T13:06:58;102731.91;;;7.44;52.29
17785;BME280;9016;53.582;10.062;2023-11-22T13:09:27;102731.25;;;7.30;53.06
17785;BME280;9016;53.582;10.062;2023-11-22T13:11:58;102725.75;;;7.43;52.98